sensor_id;sensor_type;location;lat;lon;timestamp;pressure;altitude;pressure_sealevel;temperature;humidity
6464;BME280;3265;42.694;23.282;2023-06-26T00:00:04;71455.53;;;-143.21;92.05
6464;BME280;3265;42.694;23.282;2023-06-26T00:02:33;71455.53;;;-143.21;92.29
6464;BME280;3265;42.694;23.282;2023-06-26T00:05:00;71463.44;;;-143.21;92.47
6464;BME280;3265;42.694;23.282;2023-06-26T00:07:28;71471.38;;;-143.21;92.95
6464;BME280;3265;42.694;23.282;2023-06-26T00:09:55;71467.41;;;-143.21;93.04
6464;BME280;3265;42.694;23.282;2023-06-26T00:12:22;71461.47;;;-143.21;92.71
6464;BME280;3265;42.694;23.282;2023-06-26T00:14:50;71473.38;;;-143.21;92.72
6464;BME280;3265;42.694;23.282;2023-06-26T00:17:17;71479.31;;;-143.21;92.99
6464;BME280;3265;42.694;23.282;2023-06-26T00:19:44;71471.38;;;-143.21;92.92
6464;BME280;3265;42.694;23.282;2023-06-26T00:22:11;71473.38;;;-143.21;93.06
6464;BME280;3265;42.694;23.282;2023-06-26T00:24:38;71465.44;;;-143.21;92.94
6464;BME280;3265;42.694;23.282;2023-06-26T00:27:05;71471.38;;;-143.21;92.85
6464;BME280;3265;42.694;23.282;2023-06-26T00:29:32;71477.34;;;-143.21;93.10
6464;BME280;3265;42.694;23.282;2023-06-26T00:32:00;71477.34;;;-143.21;93.18
6464;BME280;3265;42.694;23.282;2023-06-26T00:34:27;71467.41;;;-143.21;93.14
6464;BME280;3265;42.694;23.282;2023-06-26T00:36:54;71473.38;;;-143.21;93.52
6464;BME280;3265;42.694;23.282;2023-06-26T00:39:21;71461.47;;;-143.21;93.32
6464;BME280;3265;42.694;23.282;2023-06-26T00:41:51;71453.53;;;-143.21;92.92
6464;BME280;3265;42.694;23.282;2023-06-26T00:44:19;71451.56;;;-143.21;92.52
6464;BME280;3265;42.694;23.282;2023-06-26T00:46:45;71457.50;;;-143.21;92.56
6464;BME280;3265;42.694;23.282;2023-06-26T00:49:14;71463.44;;;-143.21;93.11
6464;BME280;3265;42.694;23.282;2023-06-26T00:51:41;71473.38;;;-143.21;92.93
6464;BME280;3265;42.694;23.282;2023-06-26T00:54:08;71471.38;;;-143.21;93.14
6464;BME280;3265;42.694;23.282;2023-06-26T00:56:35;71469.41;;;-143.21;93.40
6464;BME280;3265;42.694;23.282;2023-06-26T00:59:02;71469.41;;;-143.21;93.62
6464;BME280;3265;42.694;23.282;2023-06-26T01:01:28;71471.38;;;-143.21;93.49
6464;BME280;3265;42.694;23.282;2023-06-26T01:03:55;71461.47;;;-143.21;93.39
6464;BME280;3265;42.694;23.282;2023-06-26T01:06:26;71467.41;;;-143.21;93.38
6464;BME280;3265;42.694;23.282;2023-06-26T01:08:55;71469.41;;;-143.21;93.55
6464;BME280;3265;42.694;23.282;2023-06-26T01:11:22;71455.53;;;-143.21;93.47
6464;BME280;3265;42.694;23.282;2023-06-26T01:13:49;71451.56;;;-143.21;92.92
6464;BME280;3265;42.694;23.282;2023-06-26T01:16:17;71445.59;;;-143.21;93.10
6464;BME280;3265;42.694;23.282;2023-06-26T01:18:45;71447.59;;;-143.21;92.86
6464;BME280;3265;42.694;23.282;2023-06-26T01:21:14;71449.56;;;-143.21;93.11
6464;BME280;3265;42.694;23.282;2023-06-26T01:23:49;71451.56;;;-143.21;93.26
6464;BME280;3265;42.694;23.282;2023-06-26T01:26:26;71453.53;;;-143.21;93.42
6464;BME280;3265;42.694;23.282;2023-06-26T01:28:57;71479.31;;;-143.21;94.33
6464;BME280;3265;42.694;23.282;2023-06-26T01:31:26;71477.34;;;-143.21;93.94
6464;BME280;3265;42.694;23.282;2023-06-26T01:33:56;71479.31;;;-143.21;94.27
6464;BME280;3265;42.694;23.282;2023-06-26T01:36:24;71487.25;;;-143.21;94.72
6464;BME280;3265;42.694;23.282;2023-06-26T01:38:50;71489.22;;;-143.21;94.86
6464;BME280;3265;42.694;23.282;2023-06-26T01:41:18;71489.22;;;-143.21;94.68
6464;BME280;3265;42.694;23.282;2023-06-26T01:43:58;71495.19;;;-143.21;94.57
6464;BME280;3265;42.694;23.282;2023-06-26T01:46:35;71501.13;;;-143.21;94.66
6464;BME280;3265;42.694;23.282;2023-06-26T01:49:07;71499.13;;;-143.21;94.75
6464;BME280;3265;42.694;23.282;2023-06-26T01:51:41;71503.09;;;-143.21;94.93
6464;BME280;3265;42.694;23.282;2023-06-26T01:54:10;71505.09;;;-143.21;95.09
6464;BME280;3265;42.694;23.282;2023-06-26T01:56:39;71505.09;;;-143.21;94.85
6464;BME280;3265;42.694;23.282;2023-06-26T01:59:07;71503.09;;;-143.21;95.06
6464;BME280;3265;42.694;23.282;2023-06-26T02:01:35;71493.19;;;-143.21;94.48
6464;BME280;3265;42.694;23.282;2023-06-26T02:04:02;71495.19;;;-143.21;94.07
6464;BME280;3265;42.694;23.282;2023-06-26T02:06:29;71485.25;;;-143.21;93.44
6464;BME280;3265;42.694;23.282;2023-06-26T02:08:56;71485.25;;;-143.21;92.92
6464;BME280;3265;42.694;23.282;2023-06-26T02:11:23;71481.28;;;-143.21;93.11
6464;BME280;3265;42.694;23.282;2023-06-26T02:13:49;71479.31;;;-143.21;92.81
6464;BME280;3265;42.694;23.282;2023-06-26T02:16:17;71481.28;;;-143.21;92.75
6464;BME280;3265;42.694;23.282;2023-06-26T02:18:44;71499.13;;;-143.21;93.00
6464;BME280;3265;42.694;23.282;2023-06-26T02:21:11;71499.13;;;-143.21;93.53
6464;BME280;3265;42.694;23.282;2023-06-26T02:23:38;71509.06;;;-143.21;94.02
6464;BME280;3265;42.694;23.282;2023-06-26T02:26:05;71526.91;;;-143.21;94.29
6464;BME280;3265;42.694;23.282;2023-06-26T02:28:32;71522.94;;;-143.21;94.73
6464;BME280;3265;42.694;23.282;2023-06-26T02:30:59;71515.00;;;-143.21;94.85
6464;BME280;3265;42.694;23.282;2023-06-26T02:33:27;71505.09;;;-143.21;94.40
6464;BME280;3265;42.694;23.282;2023-06-26T02:35:54;71507.06;;;-143.21;94.20
6464;BME280;3265;42.694;23.282;2023-06-26T02:38:21;71509.06;;;-143.21;94.49
6464;BME280;3265;42.694;23.282;2023-06-26T02:40:48;71503.09;;;-143.21;93.85
6464;BME280;3265;42.694;23.282;2023-06-26T02:43:14;71518.97;;;-143.21;94.31
6464;BME280;3265;42.694;23.282;2023-06-26T02:45:41;71526.91;;;-143.21;94.67
6464;BME280;3265;42.694;23.282;2023-06-26T02:48:08;71528.88;;;-143.21;94.73
6464;BME280;3265;42.694;23.282;2023-06-26T02:50:36;71530.88;;;-143.21;94.50
6464;BME280;3265;42.694;23.282;2023-06-26T02:53:03;71534.81;;;-143.21;94.80
6464;BME280;3265;42.694;23.282;2023-06-26T02:55:30;71532.84;;;-143.21;95.05
6464;BME280;3265;42.694;23.282;2023-06-26T02:57:57;71522.94;;;-143.21;94.31
6464;BME280;3265;42.694;23.282;2023-06-26T03:00:24;71520.94;;;-143.21;94.15
6464;BME280;3265;42.694;23.282;2023-06-26T03:02:50;71526.91;;;-143.21;94.15
6464;BME280;3265;42.694;23.282;2023-06-26T03:05:17;71526.91;;;-143.21;94.03
6464;BME280;3265;42.694;23.282;2023-06-26T03:07:46;71516.97;;;-143.21;93.47
6464;BME280;3265;42.694;23.282;2023-06-26T03:10:12;71530.88;;;-143.21;93.57
6464;BME280;3265;42.694;23.282;2023-06-26T03:12:39;71542.75;;;-143.21;94.29
6464;BME280;3265;42.694;23.282;2023-06-26T03:15:07;71550.69;;;-143.21;94.85
6464;BME280;3265;42.694;23.282;2023-06-26T03:17:33;71554.66;;;-143.21;94.45
6464;BME280;3265;42.694;23.282;2023-06-26T03:20:00;71546.72;;;-143.21;94.67
6464;BME280;3265;42.694;23.282;2023-06-26T03:22:27;71546.72;;;-143.21;94.39
6464;BME280;3265;42.694;23.282;2023-06-26T03:24:56;71540.78;;;-143.21;94.31
6464;BME280;3265;42.694;23.282;2023-06-26T03:27:22;71530.88;;;-143.21;94.12
6464;BME280;3265;42.694;23.282;2023-06-26T03:29:49;71530.88;;;-143.21;93.57
6464;BME280;3265;42.694;23.282;2023-06-26T03:32:16;71520.94;;;-143.21;93.63
6464;BME280;3265;42.694;23.282;2023-06-26T03:34:43;71528.88;;;-143.21;93.36
6464;BME280;3265;42.694;23.282;2023-06-26T03:37:09;71528.88;;;-143.21;93.34
6464;BME280;3265;42.694;23.282;2023-06-26T03:39:36;71515.00;;;-143.21;93.18
6464;BME280;3265;42.694;23.282;2023-06-26T03:42:05;71518.97;;;-143.21;93.04
6464;BME280;3265;42.694;23.282;2023-06-26T03:44:32;71515.00;;;-143.21;93.06
6464;BME280;3265;42.694;23.282;2023-06-26T03:46:59;71518.97;;;-143.21;93.13
6464;BME280;3265;42.694;23.282;2023-06-26T03:49:26;71513.03;;;-143.21;93.06
6464;BME280;3265;42.694;23.282;2023-06-26T03:51:53;71511.03;;;-143.21;92.97
6464;BME280;3265;42.694;23.282;2023-06-26T03:54:19;71505.09;;;-143.21;92.53
6464;BME280;3265;42.694;23.282;2023-06-26T03:56:46;71495.19;;;-143.21;92.42
6464;BME280;3265;42.694;23.282;2023-06-26T03:59:14;71489.22;;;-143.21;91.76
6464;BME280;3265;42.694;23.282;2023-06-26T04:01:41;71487.25;;;-143.21;91.64
6464;BME280;3265;42.694;23.282;2023-06-26T04:04:08;71481.28;;;-143.21;91.48
6464;BME280;3265;42.694;23.282;2023-06-26T04:06:35;71479.31;;;-143.21;91.41
6464;BME280;3265;42.694;23.282;2023-06-26T04:09:02;71487.25;;;-143.21;91.79
6464;BME280;3265;42.694;23.282;2023-06-26T04:11:29;71477.34;;;-143.21;91.34
6464;BME280;3265;42.694;23.282;2023-06-26T04:13:56;71473.38;;;-143.21;91.27
6464;BME280;3265;42.694;23.282;2023-06-26T04:16:25;71469.41;;;-143.21;90.95
6464;BME280;3265;42.694;23.282;2023-06-26T04:18:52;71475.34;;;-143.21;91.03
6464;BME280;3265;42.694;23.282;2023-06-26T04:21:18;71473.38;;;-143.21;91.31
6464;BME280;3265;42.694;23.282;2023-06-26T04:23:45;71473.38;;;-143.21;91.35
6464;BME280;3265;42.694;23.282;2023-06-26T04:26:13;71461.47;;;-143.21;91.06
6464;BME280;3265;42.694;23.282;2023-06-26T04:28:40;71461.47;;;-143.21;90.57
6464;BME280;3265;42.694;23.282;2023-06-26T04:31:07;71457.50;;;-143.21;90.24
6464;BME280;3265;42.694;23.282;2023-06-26T04:33:35;71449.56;;;-143.21;89.73
6464;BME280;3265;42.694;23.282;2023-06-26T04:36:02;71439.66;;;-143.21;89.48
6464;BME280;3265;42.694;23.282;2023-06-26T04:38:29;71449.56;;;-143.21;89.58
6464;BME280;3265;42.694;23.282;2023-06-26T04:40:56;71457.50;;;-143.21;90.28
6464;BME280;3265;42.694;23.282;2023-06-26T04:43:23;71467.41;;;-143.21;90.72
6464;BME280;3265;42.694;23.282;2023-06-26T04:45:50;71469.41;;;-143.21;91.04
6464;BME280;3265;42.694;23.282;2023-06-26T04:48:17;71457.50;;;-143.21;91.20
6464;BME280;3265;42.694;23.282;2023-06-26T04:50:45;71455.53;;;-143.21;90.88
6464;BME280;3265;42.694;23.282;2023-06-26T04:53:18;71449.56;;;-143.21;90.92
6464;BME280;3265;42.694;23.282;2023-06-26T04:55:44;71451.56;;;-143.21;90.59
6464;BME280;3265;42.694;23.282;2023-06-26T04:58:11;71455.53;;;-143.21;90.68
6464;BME280;3265;42.694;23.282;2023-06-26T05:00:38;71451.56;;;-143.21;90.65
6464;BME280;3265;42.694;23.282;2023-06-26T05:03:08;71449.56;;;-143.21;90.38
6464;BME280;3265;42.694;23.282;2023-06-26T05:05:35;71449.56;;;-143.21;89.97
6464;BME280;3265;42.694;23.282;2023-06-26T05:08:15;71445.59;;;-143.21;89.86
6464;BME280;3265;42.694;23.282;2023-06-26T05:10:42;71447.59;;;-143.21;89.48
6464;BME280;3265;42.694;23.282;2023-06-26T05:13:09;71453.53;;;-143.21;89.59
6464;BME280;3265;42.694;23.282;2023-06-26T05:15:36;71455.53;;;-143.21;90.05
6464;BME280;3265;42.694;23.282;2023-06-26T05:18:03;71441.63;;;-143.21;89.13
6464;BME280;3265;42.694;23.282;2023-06-26T05:20:31;71435.69;;;-143.21;89.03
6464;BME280;3265;42.694;23.282;2023-06-26T05:22:58;71431.72;;;-143.21;89.03
6464;BME280;3265;42.694;23.282;2023-06-26T05:25:26;71421.81;;;-143.21;88.21
6464;BME280;3265;42.694;23.282;2023-06-26T05:27:55;71421.81;;;-143.21;88.17
6464;BME280;3265;42.694;23.282;2023-06-26T05:30:25;71411.91;;;-143.21;88.00
6464;BME280;3265;42.694;23.282;2023-06-26T05:32:54;71402.00;;;-143.21;87.95
6464;BME280;3265;42.694;23.282;2023-06-26T05:35:21;71405.94;;;-143.21;87.40
6464;BME280;3265;42.694;23.282;2023-06-26T05:37:49;71398.03;;;-143.21;86.40
6464;BME280;3265;42.694;23.282;2023-06-26T05:40:17;71402.00;;;-143.21;86.09
6464;BME280;3265;42.694;23.282;2023-06-26T05:42:47;71398.03;;;-143.21;85.49
6464;BME280;3265;42.694;23.282;2023-06-26T05:45:15;71398.03;;;-143.21;85.97
6464;BME280;3265;42.694;23.282;2023-06-26T05:47:42;71380.19;;;-143.21;84.69
6464;BME280;3265;42.694;23.282;2023-06-26T05:50:10;71380.19;;;-143.21;83.58
6464;BME280;3265;42.694;23.282;2023-06-26T05:52:37;71366.31;;;-143.21;83.52
6464;BME280;3265;42.694;23.282;2023-06-26T05:55:06;71356.38;;;-143.21;83.34
6464;BME280;3265;42.694;23.282;2023-06-26T05:57:35;71342.50;;;-143.21;83.25
6464;BME280;3265;42.694;23.282;2023-06-26T06:00:06;71328.63;;;-143.21;82.88
6464;BME280;3265;42.694;23.282;2023-06-26T06:02:36;71310.78;;;-143.21;82.12
6464;BME280;3265;42.694;23.282;2023-06-26T06:05:03;71310.78;;;-143.21;81.60
6464;BME280;3265;42.694;23.282;2023-06-26T06:07:31;71320.69;;;-143.21;82.07
6464;BME280;3265;42.694;23.282;2023-06-26T06:09:58;71324.66;;;-143.21;82.76
6464;BME280;3265;42.694;23.282;2023-06-26T06:12:24;71312.78;;;-143.21;82.29
6464;BME280;3265;42.694;23.282;2023-06-26T06:14:51;71320.69;;;-143.21;82.06
6464;BME280;3265;42.694;23.282;2023-06-26T06:17:20;71312.78;;;-143.21;81.76
6464;BME280;3265;42.694;23.282;2023-06-26T06:19:46;71294.94;;;-143.21;80.76
6464;BME280;3265;42.694;23.282;2023-06-26T06:22:13;71277.09;;;-143.21;79.61
6464;BME280;3265;42.694;23.282;2023-06-26T06:24:42;71294.94;;;-143.21;79.51
6464;BME280;3265;42.694;23.282;2023-06-26T06:27:09;71304.84;;;-143.21;80.72
6464;BME280;3265;42.694;23.282;2023-06-26T06:29:36;71300.88;;;-143.21;80.50
6464;BME280;3265;42.694;23.282;2023-06-26T06:32:03;71292.94;;;-143.21;80.29
6464;BME280;3265;42.694;23.282;2023-06-26T06:34:31;71292.94;;;-143.21;80.02
6464;BME280;3265;42.694;23.282;2023-06-26T06:36:58;71281.06;;;-143.21;79.69
6464;BME280;3265;42.694;23.282;2023-06-26T06:39:25;71263.22;;;-143.21;79.84
6464;BME280;3265;42.694;23.282;2023-06-26T06:41:52;71255.28;;;-143.21;78.96
6464;BME280;3265;42.694;23.282;2023-06-26T06:44:18;71259.25;;;-143.21;77.66
6464;BME280;3265;42.694;23.282;2023-06-26T06:46:45;71263.22;;;-143.21;77.82
6464;BME280;3265;42.694;23.282;2023-06-26T06:49:12;71255.28;;;-143.21;77.70
6464;BME280;3265;42.694;23.282;2023-06-26T06:51:40;71241.41;;;-143.21;78.30
6464;BME280;3265;42.694;23.282;2023-06-26T06:54:07;71243.38;;;-143.21;77.43
6464;BME280;3265;42.694;23.282;2023-06-26T06:56:34;71239.41;;;-143.21;77.66
6464;BME280;3265;42.694;23.282;2023-06-26T06:59:00;71235.44;;;-143.21;78.11
6464;BME280;3265;42.694;23.282;2023-06-26T07:01:27;71227.53;;;-143.21;76.58
6464;BME280;3265;42.694;23.282;2023-06-26T07:03:54;71213.66;;;-143.21;75.75
6464;BME280;3265;42.694;23.282;2023-06-26T07:06:21;71219.59;;;-143.21;75.93
6464;BME280;3265;42.694;23.282;2023-06-26T07:08:49;71221.56;;;-143.21;76.13
6464;BME280;3265;42.694;23.282;2023-06-26T07:11:16;71205.72;;;-143.21;76.09
6464;BME280;3265;42.694;23.282;2023-06-26T07:13:42;71191.84;;;-143.21;73.97
6464;BME280;3265;42.694;23.282;2023-06-26T07:16:09;71179.94;;;-143.21;74.01
6464;BME280;3265;42.694;23.282;2023-06-26T07:18:37;71154.16;;;-143.21;72.52
6464;BME280;3265;42.694;23.282;2023-06-26T07:21:04;71136.31;;;-143.21;72.04
6464;BME280;3265;42.694;23.282;2023-06-26T07:23:31;71138.31;;;-143.21;70.51
6464;BME280;3265;42.694;23.282;2023-06-26T07:25:59;71138.31;;;-143.21;70.26
6464;BME280;3265;42.694;23.282;2023-06-26T07:28:26;71140.28;;;-143.21;71.45
6464;BME280;3265;42.694;23.282;2023-06-26T07:30:53;71140.28;;;-143.21;71.69
6464;BME280;3265;42.694;23.282;2023-06-26T07:33:19;71140.28;;;-143.21;70.38
6464;BME280;3265;42.694;23.282;2023-06-26T07:35:46;71156.16;;;-143.21;72.86
6464;BME280;3265;42.694;23.282;2023-06-26T07:38:13;71156.16;;;-143.21;72.41
6464;BME280;3265;42.694;23.282;2023-06-26T07:40:40;71156.16;;;-143.21;71.95
6464;BME280;3265;42.694;23.282;2023-06-26T07:43:08;71144.25;;;-143.21;72.20
6464;BME280;3265;42.694;23.282;2023-06-26T07:45:35;71128.41;;;-143.21;72.39
6464;BME280;3265;42.694;23.282;2023-06-26T07:48:02;71106.59;;;-143.21;70.86
6464;BME280;3265;42.694;23.282;2023-06-26T07:50:29;71130.38;;;-143.21;71.18
6464;BME280;3265;42.694;23.282;2023-06-26T07:52:55;71130.38;;;-143.21;70.65
6464;BME280;3265;42.694;23.282;2023-06-26T07:55:22;71124.44;;;-143.21;70.63
6464;BME280;3265;42.694;23.282;2023-06-26T07:57:49;71130.38;;;-143.21;70.50
6464;BME280;3265;42.694;23.282;2023-06-26T08:00:19;71130.38;;;-143.21;68.58
6464;BME280;3265;42.694;23.282;2023-06-26T08:02:45;71128.41;;;-143.21;69.60
6464;BME280;3265;42.694;23.282;2023-06-26T08:05:13;71128.41;;;-143.21;69.64
6464;BME280;3265;42.694;23.282;2023-06-26T08:07:40;71130.38;;;-143.21;68.17
6464;BME280;3265;42.694;23.282;2023-06-26T08:10:07;71120.47;;;-143.21;68.71
6464;BME280;3265;42.694;23.282;2023-06-26T08:12:34;71104.59;;;-143.21;68.87
6464;BME280;3265;42.694;23.282;2023-06-26T08:15:02;71098.66;;;-143.21;69.29
6464;BME280;3265;42.694;23.282;2023-06-26T08:17:31;71092.72;;;-143.21;68.30
6464;BME280;3265;42.694;23.282;2023-06-26T08:19:58;71102.63;;;-143.21;68.20
6464;BME280;3265;42.694;23.282;2023-06-26T08:22:25;71102.63;;;-143.21;68.84
6464;BME280;3265;42.694;23.282;2023-06-26T08:24:51;71094.69;;;-143.21;68.97
6464;BME280;3265;42.694;23.282;2023-06-26T08:27:18;71074.88;;;-143.21;68.90
6464;BME280;3265;42.694;23.282;2023-06-26T08:29:45;71078.84;;;-143.21;66.93
6464;BME280;3265;42.694;23.282;2023-06-26T08:32:12;71062.97;;;-143.21;65.44
6464;BME280;3265;42.694;23.282;2023-06-26T08:34:40;71059.00;;;-143.21;66.57
6464;BME280;3265;42.694;23.282;2023-06-26T08:37:07;71053.06;;;-143.21;68.14
6464;BME280;3265;42.694;23.282;2023-06-26T08:39:35;71035.22;;;-143.21;66.37
6464;BME280;3265;42.694;23.282;2023-06-26T08:42:02;71041.16;;;-143.21;64.75
6464;BME280;3265;42.694;23.282;2023-06-26T08:44:28;71031.25;;;-143.21;64.98
6464;BME280;3265;42.694;23.282;2023-06-26T08:46:55;71011.44;;;-143.21;65.09
6464;BME280;3265;42.694;23.282;2023-06-26T08:49:28;70993.59;;;-143.21;64.73
6464;BME280;3265;42.694;23.282;2023-06-26T08:52:03;70979.72;;;-143.21;65.24
6464;BME280;3265;42.694;23.282;2023-06-26T08:54:36;70959.91;;;-143.21;64.64
6464;BME280;3265;42.694;23.282;2023-06-26T08:57:04;70963.84;;;-143.21;63.12
6464;BME280;3265;42.694;23.282;2023-06-26T08:59:32;70967.81;;;-143.21;62.76
6464;BME280;3265;42.694;23.282;2023-06-26T09:02:00;70989.63;;;-143.21;63.70
6464;BME280;3265;42.694;23.282;2023-06-26T09:04:28;70993.59;;;-143.21;63.69
6464;BME280;3265;42.694;23.282;2023-06-26T09:06:56;70985.66;;;-143.21;64.04
6464;BME280;3265;42.694;23.282;2023-06-26T09:09:23;70979.72;;;-143.21;64.22
6464;BME280;3265;42.694;23.282;2023-06-26T09:11:50;70987.66;;;-143.21;63.80
6464;BME280;3265;42.694;23.282;2023-06-26T09:14:17;70975.75;;;-143.21;63.49
6464;BME280;3265;42.694;23.282;2023-06-26T09:16:45;70957.91;;;-143.21;63.72
6464;BME280;3265;42.694;23.282;2023-06-26T09:19:12;70936.09;;;-143.21;62.96
6464;BME280;3265;42.694;23.282;2023-06-26T09:21:40;70934.13;;;-143.21;61.50
6464;BME280;3265;42.694;23.282;2023-06-26T09:24:09;70928.19;;;-143.21;60.73
6464;BME280;3265;42.694;23.282;2023-06-26T09:26:37;70906.38;;;-143.21;61.33
6464;BME280;3265;42.694;23.282;2023-06-26T09:29:04;70900.41;;;-143.21;61.25
6464;BME280;3265;42.694;23.282;2023-06-26T09:31:32;70892.50;;;-143.21;60.79
6464;BME280;3265;42.694;23.282;2023-06-26T09:34:00;70880.59;;;-143.21;59.79
6464;BME280;3265;42.694;23.282;2023-06-26T09:36:28;70880.59;;;-143.21;59.54
6464;BME280;3265;42.694;23.282;2023-06-26T09:38:58;70884.56;;;-143.21;59.87
6464;BME280;3265;42.694;23.282;2023-06-26T09:41:27;70896.47;;;-143.21;60.00
6464;BME280;3265;42.694;23.282;2023-06-26T09:43:54;70884.56;;;-143.21;60.19
6464;BME280;3265;42.694;23.282;2023-06-26T09:46:25;70882.59;;;-143.21;59.76
6464;BME280;3265;42.694;23.282;2023-06-26T09:48:58;70874.66;;;-143.21;58.56
6464;BME280;3265;42.694;23.282;2023-06-26T09:51:25;70880.59;;;-143.21;58.25
6464;BME280;3265;42.694;23.282;2023-06-26T09:53:52;70892.50;;;-143.21;58.28
6464;BME280;3265;42.694;23.282;2023-06-26T09:56:19;70886.53;;;-143.21;59.43
6464;BME280;3265;42.694;23.282;2023-06-26T09:58:49;70880.59;;;-143.21;57.87
6464;BME280;3265;42.694;23.282;2023-06-26T10:01:17;70878.63;;;-143.21;57.13
6464;BME280;3265;42.694;23.282;2023-06-26T10:03:44;70866.72;;;-143.21;56.57
6464;BME280;3265;42.694;23.282;2023-06-26T10:06:11;70844.91;;;-143.21;57.56
6464;BME280;3265;42.694;23.282;2023-06-26T10:08:39;70821.13;;;-143.21;56.42
6464;BME280;3265;42.694;23.282;2023-06-26T10:11:08;70807.25;;;-143.21;55.17
6464;BME280;3265;42.694;23.282;2023-06-26T10:13:39;70807.25;;;-143.21;55.72
6464;BME280;3265;42.694;23.282;2023-06-26T10:16:13;70815.19;;;-143.21;56.04
6464;BME280;3265;42.694;23.282;2023-06-26T10:18:43;70848.88;;;-143.21;55.67
6464;BME280;3265;42.694;23.282;2023-06-26T10:21:11;70840.97;;;-143.21;56.18
6464;BME280;3265;42.694;23.282;2023-06-26T10:23:41;70838.97;;;-143.21;57.13
6464;BME280;3265;42.694;23.282;2023-06-26T10:26:09;70835.00;;;-143.21;58.15
6464;BME280;3265;42.694;23.282;2023-06-26T10:28:38;70821.13;;;-143.21;57.72
6464;BME280;3265;42.694;23.282;2023-06-26T10:31:07;70805.28;;;-143.21;56.32
6464;BME280;3265;42.694;23.282;2023-06-26T10:33:36;70793.38;;;-143.21;55.51
6464;BME280;3265;42.694;23.282;2023-06-26T10:36:14;70797.34;;;-143.21;53.91
6464;BME280;3265;42.694;23.282;2023-06-26T10:38:51;70799.31;;;-143.21;54.63
6464;BME280;3265;42.694;23.282;2023-06-26T10:41:21;70799.31;;;-143.21;53.70
6464;BME280;3265;42.694;23.282;2023-06-26T10:43:50;70785.44;;;-143.21;54.91
6464;BME280;3265;42.694;23.282;2023-06-26T10:46:18;70765.63;;;-143.21;54.64
6464;BME280;3265;42.694;23.282;2023-06-26T10:49:00;70761.66;;;-143.21;54.61
6464;BME280;3265;42.694;23.282;2023-06-26T10:51:27;70763.66;;;-143.21;54.87
6464;BME280;3265;42.694;23.282;2023-06-26T10:53:54;70759.69;;;-143.21;55.43
6464;BME280;3265;42.694;23.282;2023-06-26T10:56:40;70739.84;;;-143.21;56.09
6464;BME280;3265;42.694;23.282;2023-06-26T10:59:16;70722.03;;;-143.21;55.17
6464;BME280;3265;42.694;23.282;2023-06-26T11:01:44;70694.25;;;-143.21;55.59
6464;BME280;3265;42.694;23.282;2023-06-26T11:04:13;70668.50;;;-143.21;54.73
6464;BME280;3265;42.694;23.282;2023-06-26T11:06:45;70662.56;;;-143.21;53.54
6464;BME280;3265;42.694;23.282;2023-06-26T11:09:17;70668.50;;;-143.21;53.34
6464;BME280;3265;42.694;23.282;2023-06-26T11:11:59;70686.34;;;-143.21;52.77
6464;BME280;3265;42.694;23.282;2023-06-26T11:14:31;70694.25;;;-143.21;53.83
6464;BME280;3265;42.694;23.282;2023-06-26T11:16:59;70708.16;;;-143.21;53.41
6464;BME280;3265;42.694;23.282;2023-06-26T11:19:30;70722.03;;;-143.21;53.98
6464;BME280;3265;42.694;23.282;2023-06-26T11:22:02;70722.03;;;-143.21;54.59
6464;BME280;3265;42.694;23.282;2023-06-26T11:24:30;70737.88;;;-143.21;52.99
6464;BME280;3265;42.694;23.282;2023-06-26T11:27:00;70757.69;;;-143.21;52.76
6464;BME280;3265;42.694;23.282;2023-06-26T11:29:29;70743.81;;;-143.21;53.38
6464;BME280;3265;42.694;23.282;2023-06-26T11:32:04;70753.72;;;-143.21;54.33
6464;BME280;3265;42.694;23.282;2023-06-26T11:34:35;70749.78;;;-143.21;54.52
6464;BME280;3265;42.694;23.282;2023-06-26T11:37:03;70745.81;;;-143.21;54.88
6464;BME280;3265;42.694;23.282;2023-06-26T11:39:30;70749.78;;;-143.21;53.20
6464;BME280;3265;42.694;23.282;2023-06-26T11:41:59;70753.72;;;-143.21;53.07
6464;BME280;3265;42.694;23.282;2023-06-26T11:44:29;70765.63;;;-143.21;52.95
6464;BME280;3265;42.694;23.282;2023-06-26T11:46:57;70783.47;;;-143.21;53.79
6464;BME280;3265;42.694;23.282;2023-06-26T11:49:24;70745.81;;;-143.21;54.25
6464;BME280;3265;42.694;23.282;2023-06-26T11:51:53;70688.31;;;-143.21;54.00
6464;BME280;3265;42.694;23.282;2023-06-26T11:54:24;70609.03;;;-143.21;52.63
6464;BME280;3265;42.694;23.282;2023-06-26T11:56:55;70551.56;;;-143.21;50.90
6464;BME280;3265;42.694;23.282;2023-06-26T11:59:23;70523.81;;;-143.21;50.75
6464;BME280;3265;42.694;23.282;2023-06-26T12:01:51;70551.56;;;-143.21;49.60
6464;BME280;3265;42.694;23.282;2023-06-26T12:04:18;70575.34;;;-143.21;49.75
6464;BME280;3265;42.694;23.282;2023-06-26T12:06:47;70575.34;;;-143.21;49.78
6464;BME280;3265;42.694;23.282;2023-06-26T12:09:17;70541.63;;;-143.21;50.57
6464;BME280;3265;42.694;23.282;2023-06-26T12:11:47;70502.00;;;-143.21;49.93
6464;BME280;3265;42.694;23.282;2023-06-26T12:14:15;70476.22;;;-143.21;48.43
6464;BME280;3265;42.694;23.282;2023-06-26T12:16:43;70444.53;;;-143.21;49.44
6464;BME280;3265;42.694;23.282;2023-06-26T12:19:10;70396.94;;;-143.21;48.97
6464;BME280;3265;42.694;23.282;2023-06-26T12:21:50;70345.41;;;-143.21;46.22
6464;BME280;3265;42.694;23.282;2023-06-26T12:24:20;70303.78;;;-143.21;46.24
6464;BME280;3265;42.694;23.282;2023-06-26T12:26:50;70272.09;;;-143.21;45.95
6464;BME280;3265;42.694;23.282;2023-06-26T12:29:20;70293.88;;;-143.21;45.41
6464;BME280;3265;42.694;23.282;2023-06-26T12:31:50;70339.47;;;-143.21;45.87
6464;BME280;3265;42.694;23.282;2023-06-26T12:34:19;70367.22;;;-143.21;47.08
6464;BME280;3265;42.694;23.282;2023-06-26T12:36:48;70398.94;;;-143.21;47.73
6464;BME280;3265;42.694;23.282;2023-06-26T12:39:16;70440.56;;;-143.21;47.82
6464;BME280;3265;42.694;23.282;2023-06-26T12:41:52;70464.34;;;-143.21;48.09
6464;BME280;3265;42.694;23.282;2023-06-26T12:44:21;70486.16;;;-143.21;49.12
6464;BME280;3265;42.694;23.282;2023-06-26T12:46:49;70507.94;;;-143.21;50.10
6464;BME280;3265;42.694;23.282;2023-06-26T12:49:16;70533.72;;;-143.21;50.47
6464;BME280;3265;42.694;23.282;2023-06-26T12:51:45;70545.59;;;-143.21;50.77
6464;BME280;3265;42.694;23.282;2023-06-26T12:54:12;70547.59;;;-143.21;51.26